sensor_id;sensor_type;location;lat;lon;timestamp;P1;durP1;ratioP1;P2;durP2;ratioP2
9320;SDS011;4699;41.950;12.514;2022-07-29T00:01:47;10.88;;;4.70;;
9320;SDS011;4699;41.950;12.514;2022-07-29T00:04:17;7.28;;;4.43;;
9320;SDS011;4699;41.950;12.514;2022-07-29T00:06:44;10.55;;;4.53;;
9320;SDS011;4699;41.950;12.514;2022-07-29T00:09:12;11.50;;;4.68;;
9320;SDS011;4699;41.950;12.514;2022-07-29T00:11:39;19.15;;;4.28;;
9320;SDS011;4699;41.950;12.514;2022-07-29T00:14:06;13.85;;;4.15;;
9320;SDS011;4699;41.950;12.514;2022-07-29T00:16:35;9.00;;;4.65;;
9320;SDS011;4699;41.950;12.514;2022-07-29T00:19:02;8.27;;;3.90;;
9320;SDS011;4699;41.950;12.514;2022-07-29T00:21:30;12.60;;;4.68;;
9320;SDS011;4699;41.950;12.514;2022-07-29T00:23:57;10.35;;;4.22;;
9320;SDS011;4699;41.950;12.514;2022-07-29T00:26:24;9.02;;;4.47;;
9320;SDS011;4699;41.950;12.514;2022-07-29T00:28:56;9.98;;;4.93;;
9320;SDS011;4699;41.950;12.514;2022-07-29T00:31:23;8.55;;;4.25;;
9320;SDS011;4699;41.950;12.514;2022-07-29T00:33:52;9.52;;;4.65;;
9320;SDS011;4699;41.950;12.514;2022-07-29T00:36:19;9.23;;;4.90;;
9320;SDS011;4699;41.950;12.514;2022-07-29T00:38:46;10.15;;;4.47;;
9320;SDS011;4699;41.950;12.514;2022-07-29T00:41:13;11.68;;;4.65;;
9320;SDS011;4699;41.950;12.514;2022-07-29T00:43:40;13.32;;;4.93;;
9320;SDS011;4699;41.950;12.514;2022-07-29T00:46:08;8.05;;;4.60;;
9320;SDS011;4699;41.950;12.514;2022-07-29T00:48:35;7.82;;;4.20;;
9320;SDS011;4699;41.950;12.514;2022-07-29T00:51:04;13.45;;;4.47;;
9320;SDS011;4699;41.950;12.514;2022-07-29T00:53:32;13.35;;;4.22;;
9320;SDS011;4699;41.950;12.514;2022-07-29T00:56:00;8.48;;;4.25;;
9320;SDS011;4699;41.950;12.514;2022-07-29T00:58:27;8.07;;;4.78;;
9320;SDS011;4699;41.950;12.514;2022-07-29T01:00:55;10.30;;;4.97;;
9320;SDS011;4699;41.950;12.514;2022-07-29T01:03:22;8.90;;;4.88;;
9320;SDS011;4699;41.950;12.514;2022-07-29T01:05:49;12.02;;;5.28;;
9320;SDS011;4699;41.950;12.514;2022-07-29T01:08:18;10.65;;;5.18;;
9320;SDS011;4699;41.950;12.514;2022-07-29T01:10:47;10.00;;;5.07;;
9320;SDS011;4699;41.950;12.514;2022-07-29T01:13:14;8.63;;;4.35;;
9320;SDS011;4699;41.950;12.514;2022-07-29T01:15:43;9.65;;;4.70;;
9320;SDS011;4699;41.950;12.514;2022-07-29T01:18:11;5.75;;;4.35;;
9320;SDS011;4699;41.950;12.514;2022-07-29T01:20:44;14.85;;;4.90;;
9320;SDS011;4699;41.950;12.514;2022-07-29T01:26:13;17.48;;;4.78;;
9320;SDS011;4699;41.950;12.514;2022-07-29T01:28:51;6.28;;;4.15;;
9320;SDS011;4699;41.950;12.514;2022-07-29T01:31:20;9.07;;;4.47;;
9320;SDS011;4699;41.950;12.514;2022-07-29T01:33:50;9.57;;;4.68;;
9320;SDS011;4699;41.950;12.514;2022-07-29T01:36:22;8.13;;;4.00;;
9320;SDS011;4699;41.950;12.514;2022-07-29T01:38:54;7.70;;;4.72;;
9320;SDS011;4699;41.950;12.514;2022-07-29T01:41:21;11.50;;;4.75;;
9320;SDS011;4699;41.950;12.514;2022-07-29T01:43:51;6.13;;;4.82;;
9320;SDS011;4699;41.950;12.514;2022-07-29T01:46:21;11.70;;;5.43;;
9320;SDS011;4699;41.950;12.514;2022-07-29T01:48:52;8.85;;;5.43;;
9320;SDS011;4699;41.950;12.514;2022-07-29T01:51:20;9.13;;;4.78;;
9320;SDS011;4699;41.950;12.514;2022-07-29T01:53:50;9.15;;;5.10;;
9320;SDS011;4699;41.950;12.514;2022-07-29T01:56:19;10.10;;;5.25;;
9320;SDS011;4699;41.950;12.514;2022-07-29T01:58:46;12.57;;;4.70;;
9320;SDS011;4699;41.950;12.514;2022-07-29T02:01:16;9.35;;;5.40;;
9320;SDS011;4699;41.950;12.514;2022-07-29T02:03:44;6.93;;;4.75;;
9320;SDS011;4699;41.950;12.514;2022-07-29T02:06:12;10.15;;;5.10;;
9320;SDS011;4699;41.950;12.514;2022-07-29T02:08:42;11.82;;;5.53;;
9320;SDS011;4699;41.950;12.514;2022-07-29T02:11:11;11.77;;;5.95;;
9320;SDS011;4699;41.950;12.514;2022-07-29T02:13:38;8.93;;;5.18;;
9320;SDS011;4699;41.950;12.514;2022-07-29T02:16:06;7.75;;;5.28;;
9320;SDS011;4699;41.950;12.514;2022-07-29T02:18:35;12.13;;;5.45;;
9320;SDS011;4699;41.950;12.514;2022-07-29T02:21:03;11.52;;;4.93;;
9320;SDS011;4699;41.950;12.514;2022-07-29T02:23:30;13.05;;;4.75;;
9320;SDS011;4699;41.950;12.514;2022-07-29T02:25:58;11.32;;;5.10;;
9320;SDS011;4699;41.950;12.514;2022-07-29T02:28:26;15.52;;;5.50;;
9320;SDS011;4699;41.950;12.514;2022-07-29T02:30:54;8.57;;;4.78;;
9320;SDS011;4699;41.950;12.514;2022-07-29T02:33:22;8.45;;;5.40;;
9320;SDS011;4699;41.950;12.514;2022-07-29T02:35:52;8.10;;;4.97;;
9320;SDS011;4699;41.950;12.514;2022-07-29T02:38:20;10.55;;;5.68;;
9320;SDS011;4699;41.950;12.514;2022-07-29T02:41:07;9.50;;;4.63;;
9320;SDS011;4699;41.950;12.514;2022-07-29T02:43:36;14.15;;;4.68;;
9320;SDS011;4699;41.950;12.514;2022-07-29T02:46:04;11.23;;;5.00;;
9320;SDS011;4699;41.950;12.514;2022-07-29T02:48:34;10.35;;;4.90;;
9320;SDS011;4699;41.950;12.514;2022-07-29T02:51:07;10.98;;;5.43;;
9320;SDS011;4699;41.950;12.514;2022-07-29T02:53:35;11.23;;;5.32;;
9320;SDS011;4699;41.950;12.514;2022-07-29T02:56:04;11.63;;;5.13;;
9320;SDS011;4699;41.950;12.514;2022-07-29T02:58:33;7.78;;;4.65;;
9320;SDS011;4699;41.950;12.514;2022-07-29T03:01:02;13.57;;;5.10;;
9320;SDS011;4699;41.950;12.514;2022-07-29T03:03:35;14.75;;;5.45;;
9320;SDS011;4699;41.950;12.514;2022-07-29T03:06:03;9.80;;;4.75;;
9320;SDS011;4699;41.950;12.514;2022-07-29T03:08:32;10.32;;;5.32;;
9320;SDS011;4699;41.950;12.514;2022-07-29T03:11:01;6.95;;;5.00;;
9320;SDS011;4699;41.950;12.514;2022-07-29T03:13:28;13.40;;;5.53;;
9320;SDS011;4699;41.950;12.514;2022-07-29T03:15:56;11.93;;;5.00;;
9320;SDS011;4699;41.950;12.514;2022-07-29T03:18:24;9.57;;;5.18;;
9320;SDS011;4699;41.950;12.514;2022-07-29T03:20:52;11.90;;;5.90;;
9320;SDS011;4699;41.950;12.514;2022-07-29T03:23:19;11.00;;;4.55;;
9320;SDS011;4699;41.950;12.514;2022-07-29T03:25:49;5.72;;;4.80;;
9320;SDS011;4699;41.950;12.514;2022-07-29T03:28:16;5.95;;;4.53;;
9320;SDS011;4699;41.950;12.514;2022-07-29T03:30:44;8.20;;;5.25;;
9320;SDS011;4699;41.950;12.514;2022-07-29T03:33:11;10.02;;;5.13;;
9320;SDS011;4699;41.950;12.514;2022-07-29T03:35:39;9.23;;;4.93;;
9320;SDS011;4699;41.950;12.514;2022-07-29T03:38:06;8.05;;;4.75;;
9320;SDS011;4699;41.950;12.514;2022-07-29T03:40:34;11.13;;;5.25;;
9320;SDS011;4699;41.950;12.514;2022-07-29T03:43:03;8.70;;;4.65;;
9320;SDS011;4699;41.950;12.514;2022-07-29T03:45:32;8.20;;;4.45;;
9320;SDS011;4699;41.950;12.514;2022-07-29T03:48:01;7.32;;;4.82;;
9320;SDS011;4699;41.950;12.514;2022-07-29T03:50:28;7.32;;;5.03;;
9320;SDS011;4699;41.950;12.514;2022-07-29T03:52:57;11.07;;;4.68;;
9320;SDS011;4699;41.950;12.514;2022-07-29T03:55:25;7.13;;;5.00;;
9320;SDS011;4699;41.950;12.514;2022-07-29T03:57:53;12.15;;;5.15;;
9320;SDS011;4699;41.950;12.514;2022-07-29T04:00:24;8.00;;;5.07;;
9320;SDS011;4699;41.950;12.514;2022-07-29T04:02:51;8.27;;;4.65;;
9320;SDS011;4699;41.950;12.514;2022-07-29T04:05:18;11.48;;;4.93;;
9320;SDS011;4699;41.950;12.514;2022-07-29T04:07:46;8.68;;;5.78;;
9320;SDS011;4699;41.950;12.514;2022-07-29T04:10:14;7.78;;;5.03;;
9320;SDS011;4699;41.950;12.514;2022-07-29T04:12:42;9.30;;;5.28;;
9320;SDS011;4699;41.950;12.514;2022-07-29T04:15:10;13.45;;;5.13;;
9320;SDS011;4699;41.950;12.514;2022-07-29T04:17:38;5.95;;;4.70;;
9320;SDS011;4699;41.950;12.514;2022-07-29T04:20:06;10.50;;;5.85;;
9320;SDS011;4699;41.950;12.514;2022-07-29T04:22:33;8.57;;;5.15;;
9320;SDS011;4699;41.950;12.514;2022-07-29T04:25:01;15.45;;;5.97;;
9320;SDS011;4699;41.950;12.514;2022-07-29T04:27:28;6.90;;;5.13;;
9320;SDS011;4699;41.950;12.514;2022-07-29T04:29:55;6.60;;;4.90;;
9320;SDS011;4699;41.950;12.514;2022-07-29T04:32:22;6.60;;;4.65;;
9320;SDS011;4699;41.950;12.514;2022-07-29T04:34:51;13.15;;;5.32;;
9320;SDS011;4699;41.950;12.514;2022-07-29T04:37:18;12.82;;;5.57;;
9320;SDS011;4699;41.950;12.514;2022-07-29T04:39:46;11.05;;;5.28;;
9320;SDS011;4699;41.950;12.514;2022-07-29T04:42:13;6.70;;;4.80;;
9320;SDS011;4699;41.950;12.514;2022-07-29T04:44:40;9.20;;;5.35;;
9320;SDS011;4699;41.950;12.514;2022-07-29T04:47:07;11.15;;;5.35;;
9320;SDS011;4699;41.950;12.514;2022-07-29T04:49:37;12.10;;;5.65;;
9320;SDS011;4699;41.950;12.514;2022-07-29T04:52:06;9.75;;;5.40;;
9320;SDS011;4699;41.950;12.514;2022-07-29T04:54:33;10.30;;;5.13;;
9320;SDS011;4699;41.950;12.514;2022-07-29T04:57:00;10.40;;;5.13;;
9320;SDS011;4699;41.950;12.514;2022-07-29T04:59:28;9.00;;;5.70;;
9320;SDS011;4699;41.950;12.514;2022-07-29T05:01:55;11.60;;;5.43;;
9320;SDS011;4699;41.950;12.514;2022-07-29T05:04:22;13.73;;;5.40;;
9320;SDS011;4699;41.950;12.514;2022-07-29T05:06:49;8.77;;;5.72;;
9320;SDS011;4699;41.950;12.514;2022-07-29T05:09:18;13.40;;;8.07;;
9320;SDS011;4699;41.950;12.514;2022-07-29T05:11:45;9.13;;;5.38;;
9320;SDS011;4699;41.950;12.514;2022-07-29T05:14:12;10.60;;;5.85;;
9320;SDS011;4699;41.950;12.514;2022-07-29T05:16:40;8.57;;;5.65;;
9320;SDS011;4699;41.950;12.514;2022-07-29T05:19:08;9.02;;;5.53;;
9320;SDS011;4699;41.950;12.514;2022-07-29T05:21:35;14.65;;;5.78;;
9320;SDS011;4699;41.950;12.514;2022-07-29T05:24:02;14.18;;;5.07;;
9320;SDS011;4699;41.950;12.514;2022-07-29T05:26:31;12.00;;;5.25;;
9320;SDS011;4699;41.950;12.514;2022-07-29T05:28:58;13.32;;;6.35;;
9320;SDS011;4699;41.950;12.514;2022-07-29T05:31:26;15.45;;;5.35;;
9320;SDS011;4699;41.950;12.514;2022-07-29T05:33:53;7.72;;;5.07;;
9320;SDS011;4699;41.950;12.514;2022-07-29T05:36:20;12.52;;;5.60;;
9320;SDS011;4699;41.950;12.514;2022-07-29T05:38:47;8.93;;;4.78;;
9320;SDS011;4699;41.950;12.514;2022-07-29T05:41:15;10.02;;;5.53;;
9320;SDS011;4699;41.950;12.514;2022-07-29T05:43:44;14.55;;;6.03;;
9320;SDS011;4699;41.950;12.514;2022-07-29T05:46:11;8.32;;;5.32;;
9320;SDS011;4699;41.950;12.514;2022-07-29T05:48:39;9.93;;;5.40;;
9320;SDS011;4699;41.950;12.514;2022-07-29T05:51:09;7.43;;;5.75;;
9320;SDS011;4699;41.950;12.514;2022-07-29T05:53:36;13.18;;;5.35;;
9320;SDS011;4699;41.950;12.514;2022-07-29T05:56:04;11.57;;;5.82;;
9320;SDS011;4699;41.950;12.514;2022-07-29T05:58:31;13.52;;;5.97;;
9320;SDS011;4699;41.950;12.514;2022-07-29T06:01:00;11.32;;;5.70;;
9320;SDS011;4699;41.950;12.514;2022-07-29T06:03:27;12.48;;;5.55;;
9320;SDS011;4699;41.950;12.514;2022-07-29T06:05:55;11.73;;;5.60;;
9320;SDS011;4699;41.950;12.514;2022-07-29T06:08:22;7.93;;;4.82;;
9320;SDS011;4699;41.950;12.514;2022-07-29T06:10:49;16.27;;;5.35;;
9320;SDS011;4699;41.950;12.514;2022-07-29T06:13:17;12.30;;;4.90;;
9320;SDS011;4699;41.950;12.514;2022-07-29T06:15:44;9.63;;;5.40;;
9320;SDS011;4699;41.950;12.514;2022-07-29T06:18:13;8.20;;;4.93;;
9320;SDS011;4699;41.950;12.514;2022-07-29T06:20:40;14.80;;;5.22;;
9320;SDS011;4699;41.950;12.514;2022-07-29T06:23:07;11.32;;;5.22;;
9320;SDS011;4699;41.950;12.514;2022-07-29T06:25:35;11.68;;;5.40;;
9320;SDS011;4699;41.950;12.514;2022-07-29T06:28:02;13.55;;;5.22;;
9320;SDS011;4699;41.950;12.514;2022-07-29T06:30:30;9.68;;;5.35;;
9320;SDS011;4699;41.950;12.514;2022-07-29T06:32:57;9.02;;;4.70;;
9320;SDS011;4699;41.950;12.514;2022-07-29T06:35:26;8.90;;;4.45;;
9320;SDS011;4699;41.950;12.514;2022-07-29T06:37:54;12.80;;;4.45;;
9320;SDS011;4699;41.950;12.514;2022-07-29T06:40:21;17.40;;;5.43;;
9320;SDS011;4699;41.950;12.514;2022-07-29T06:43:06;12.98;;;4.55;;
9320;SDS011;4699;41.950;12.514;2022-07-29T06:45:33;7.82;;;4.57;;
9320;SDS011;4699;41.950;12.514;2022-07-29T06:48:01;9.60;;;3.95;;
9320;SDS011;4699;41.950;12.514;2022-07-29T06:50:29;11.57;;;4.65;;
9320;SDS011;4699;41.950;12.514;2022-07-29T06:52:56;7.38;;;4.55;;
9320;SDS011;4699;41.950;12.514;2022-07-29T06:55:24;12.85;;;5.18;;
9320;SDS011;4699;41.950;12.514;2022-07-29T06:57:51;12.13;;;4.05;;
9320;SDS011;4699;41.950;12.514;2022-07-29T07:00:18;12.65;;;4.53;;
9320;SDS011;4699;41.950;12.514;2022-07-29T07:02:46;7.30;;;4.35;;
9320;SDS011;4699;41.950;12.514;2022-07-29T07:05:13;11.73;;;4.10;;
9320;SDS011;4699;41.950;12.514;2022-07-29T07:07:42;6.50;;;3.90;;
9320;SDS011;4699;41.950;12.514;2022-07-29T07:10:09;9.98;;;3.90;;
9320;SDS011;4699;41.950;12.514;2022-07-29T07:12:36;7.72;;;4.28;;
9320;SDS011;4699;41.950;12.514;2022-07-29T07:15:04;11.30;;;4.07;;
9320;SDS011;4699;41.950;12.514;2022-07-29T07:17:31;6.40;;;3.35;;
9320;SDS011;4699;41.950;12.514;2022-07-29T07:19:59;8.68;;;3.60;;
9320;SDS011;4699;41.950;12.514;2022-07-29T07:22:26;8.32;;;3.92;;
9320;SDS011;4699;41.950;12.514;2022-07-29T07:24:55;6.68;;;3.55;;
9320;SDS011;4699;41.950;12.514;2022-07-29T07:27:22;6.10;;;3.75;;
9320;SDS011;4699;41.950;12.514;2022-07-29T07:29:49;9.05;;;3.30;;
9320;SDS011;4699;41.950;12.514;2022-07-29T07:32:16;8.10;;;3.28;;
9320;SDS011;4699;41.950;12.514;2022-07-29T07:34:44;6.07;;;2.95;;
9320;SDS011;4699;41.950;12.514;2022-07-29T07:37:11;11.93;;;3.72;;
9320;SDS011;4699;41.950;12.514;2022-07-29T07:39:39;5.57;;;2.97;;
9320;SDS011;4699;41.950;12.514;2022-07-29T07:42:08;7.72;;;3.38;;
9320;SDS011;4699;41.950;12.514;2022-07-29T07:44:37;6.45;;;3.42;;
9320;SDS011;4699;41.950;12.514;2022-07-29T07:47:04;9.45;;;3.17;;
9320;SDS011;4699;41.950;12.514;2022-07-29T07:49:32;8.20;;;3.60;;
9320;SDS011;4699;41.950;12.514;2022-07-29T07:51:59;12.65;;;3.95;;
9320;SDS011;4699;41.950;12.514;2022-07-29T07:54:26;9.57;;;3.42;;
9320;SDS011;4699;41.950;12.514;2022-07-29T07:56:53;13.15;;;3.25;;
9320;SDS011;4699;41.950;12.514;2022-07-29T07:59:22;9.32;;;3.72;;
9320;SDS011;4699;41.950;12.514;2022-07-29T08:01:49;6.55;;;3.10;;
9320;SDS011;4699;41.950;12.514;2022-07-29T08:04:16;8.18;;;3.50;;
9320;SDS011;4699;41.950;12.514;2022-07-29T08:06:44;9.60;;;3.67;;
9320;SDS011;4699;41.950;12.514;2022-07-29T08:09:11;5.22;;;3.25;;
9320;SDS011;4699;41.950;12.514;2022-07-29T08:11:38;7.72;;;3.05;;
9320;SDS011;4699;41.950;12.514;2022-07-29T08:14:05;8.13;;;3.13;;
9320;SDS011;4699;41.950;12.514;2022-07-29T08:16:34;7.75;;;3.42;;
9320;SDS011;4699;41.950;12.514;2022-07-29T08:19:01;7.80;;;2.95;;
9320;SDS011;4699;41.950;12.514;2022-07-29T08:21:28;8.13;;;2.83;;
9320;SDS011;4699;41.950;12.514;2022-07-29T08:23:56;12.73;;;3.22;;
9320;SDS011;4699;41.950;12.514;2022-07-29T08:26:37;9.02;;;3.45;;
9320;SDS011;4699;41.950;12.514;2022-07-29T08:29:04;6.85;;;3.40;;
9320;SDS011;4699;41.950;12.514;2022-07-29T08:31:31;9.65;;;3.03;;
9320;SDS011;4699;41.950;12.514;2022-07-29T08:34:00;8.30;;;2.92;;
9320;SDS011;4699;41.950;12.514;2022-07-29T08:36:27;6.25;;;2.88;;
9320;SDS011;4699;41.950;12.514;2022-07-29T08:38:54;5.80;;;2.65;;
9320;SDS011;4699;41.950;12.514;2022-07-29T08:41:22;5.10;;;3.25;;
9320;SDS011;4699;41.950;12.514;2022-07-29T08:43:49;8.60;;;2.85;;
9320;SDS011;4699;41.950;12.514;2022-07-29T08:46:17;3.90;;;2.30;;
9320;SDS011;4699;41.950;12.514;2022-07-29T08:48:44;5.35;;;2.45;;
9320;SDS011;4699;41.950;12.514;2022-07-29T08:51:14;7.88;;;2.78;;
9320;SDS011;4699;41.950;12.514;2022-07-29T08:53:42;9.05;;;3.25;;
9320;SDS011;4699;41.950;12.514;2022-07-29T08:56:11;5.10;;;2.53;;
9320;SDS011;4699;41.950;12.514;2022-07-29T08:58:38;8.75;;;2.72;;
9320;SDS011;4699;41.950;12.514;2022-07-29T09:01:06;5.80;;;2.38;;
9320;SDS011;4699;41.950;12.514;2022-07-29T09:03:34;11.88;;;2.78;;
9320;SDS011;4699;41.950;12.514;2022-07-29T09:06:03;7.60;;;2.70;;
9320;SDS011;4699;41.950;12.514;2022-07-29T09:08:32;9.05;;;2.95;;
9320;SDS011;4699;41.950;12.514;2022-07-29T09:11:00;10.32;;;3.28;;
9320;SDS011;4699;41.950;12.514;2022-07-29T09:13:28;4.93;;;2.60;;
9320;SDS011;4699;41.950;12.514;2022-07-29T09:15:55;6.90;;;2.40;;
9320;SDS011;4699;41.950;12.514;2022-07-29T09:18:35;6.65;;;2.83;;
9320;SDS011;4699;41.950;12.514;2022-07-29T09:21:03;6.53;;;2.60;;
9320;SDS011;4699;41.950;12.514;2022-07-29T09:24:08;4.97;;;2.90;;
9320;SDS011;4699;41.950;12.514;2022-07-29T09:26:36;7.03;;;2.70;;
9320;SDS011;4699;41.950;12.514;2022-07-29T09:29:07;6.05;;;3.25;;
9320;SDS011;4699;41.950;12.514;2022-07-29T09:31:36;10.07;;;3.00;;
9320;SDS011;4699;41.950;12.514;2022-07-29T09:34:04;8.55;;;3.13;;
9320;SDS011;4699;41.950;12.514;2022-07-29T09:36:36;6.00;;;3.00;;
9320;SDS011;4699;41.950;12.514;2022-07-29T09:39:05;8.57;;;3.40;;
9320;SDS011;4699;41.950;12.514;2022-07-29T09:41:44;6.93;;;3.35;;
9320;SDS011;4699;41.950;12.514;2022-07-29T09:44:12;9.25;;;3.30;;
9320;SDS011;4699;41.950;12.514;2022-07-29T09:46:40;7.82;;;3.38;;
9320;SDS011;4699;41.950;12.514;2022-07-29T09:49:08;6.35;;;2.92;;
9320;SDS011;4699;41.950;12.514;2022-07-29T09:51:36;7.88;;;3.13;;
9320;SDS011;4699;41.950;12.514;2022-07-29T09:54:08;7.72;;;2.75;;
9320;SDS011;4699;41.950;12.514;2022-07-29T09:56:49;6.30;;;3.42;;
9320;SDS011;4699;41.950;12.514;2022-07-29T09:59:16;5.32;;;2.88;;
9320;SDS011;4699;41.950;12.514;2022-07-29T10:01:45;8.82;;;2.72;;
9320;SDS011;4699;41.950;12.514;2022-07-29T10:04:12;9.35;;;3.50;;
9320;SDS011;4699;41.950;12.514;2022-07-29T10:06:55;6.00;;;3.03;;
9320;SDS011;4699;41.950;12.514;2022-07-29T10:09:23;8.85;;;3.47;;
9320;SDS011;4699;41.950;12.514;2022-07-29T10:12:05;10.10;;;2.80;;
9320;SDS011;4699;41.950;12.514;2022-07-29T10:14:36;4.07;;;2.70;;
9320;SDS011;4699;41.950;12.514;2022-07-29T10:17:04;5.22;;;3.10;;
9320;SDS011;4699;41.950;12.514;2022-07-29T10:19:32;5.47;;;3.65;;
9320;SDS011;4699;41.950;12.514;2022-07-29T10:21:59;8.23;;;2.92;;
9320;SDS011;4699;41.950;12.514;2022-07-29T10:24:27;6.93;;;3.08;;
9320;SDS011;4699;41.950;12.514;2022-07-29T10:26:55;6.20;;;3.15;;
9320;SDS011;4699;41.950;12.514;2022-07-29T10:29:24;10.85;;;3.05;;
9320;SDS011;4699;41.950;12.514;2022-07-29T10:31:54;6.20;;;3.38;;
9320;SDS011;4699;41.950;12.514;2022-07-29T10:34:27;12.27;;;3.17;;
9320;SDS011;4699;41.950;12.514;2022-07-29T10:37:00;5.95;;;3.30;;
9320;SDS011;4699;41.950;12.514;2022-07-29T10:39:33;6.03;;;3.00;;
9320;SDS011;4699;41.950;12.514;2022-07-29T10:42:10;11.10;;;3.28;;
9320;SDS011;4699;41.950;12.514;2022-07-29T10:44:40;4.05;;;2.78;;
9320;SDS011;4699;41.950;12.514;2022-07-29T10:47:16;10.90;;;3.60;;
9320;SDS011;4699;41.950;12.514;2022-07-29T10:49:54;8.20;;;3.35;;
9320;SDS011;4699;41.950;12.514;2022-07-29T10:52:22;7.20;;;3.03;;
9320;SDS011;4699;41.950;12.514;2022-07-29T10:54:52;13.75;;;3.50;;
9320;SDS011;4699;41.950;12.514;2022-07-29T10:57:24;5.72;;;3.17;;
9320;SDS011;4699;41.950;12.514;2022-07-29T11:02:43;6.38;;;3.47;;
9320;SDS011;4699;41.950;12.514;2022-07-29T11:05:13;13.65;;;3.25;;
9320;SDS011;4699;41.950;12.514;2022-07-29T11:10:24;4.97;;;2.90;;
9320;SDS011;4699;41.950;12.514;2022-07-29T11:12:51;6.55;;;2.65;;
9320;SDS011;4699;41.950;12.514;2022-07-29T11:15:19;7.68;;;2.78;;
9320;SDS011;4699;41.950;12.514;2022-07-29T11:18:07;10.18;;;3.35;;
9320;SDS011;4699;41.950;12.514;2022-07-29T11:20:35;7.45;;;2.65;;
9320;SDS011;4699;41.950;12.514;2022-07-29T11:25:45;5.43;;;2.65;;
9320;SDS011;4699;41.950;12.514;2022-07-29T11:28:13;5.22;;;2.35;;
9320;SDS011;4699;41.950;12.514;2022-07-29T11:30:49;9.80;;;3.80;;
9320;SDS011;4699;41.950;12.514;2022-07-29T11:33:28;7.35;;;3.22;;
9320;SDS011;4699;41.950;12.514;2022-07-29T11:36:08;10.10;;;2.95;;
9320;SDS011;4699;41.950;12.514;2022-07-29T11:38:35;6.40;;;3.22;;
9320;SDS011;4699;41.950;12.514;2022-07-29T11:41:21;7.18;;;3.88;;
9320;SDS011;4699;41.950;12.514;2022-07-29T11:43:49;15.35;;;4.40;;
9320;SDS011;4699;41.950;12.514;2022-07-29T11:46:18;5.25;;;3.17;;
9320;SDS011;4699;41.950;12.514;2022-07-29T11:48:46;8.85;;;4.03;;
9320;SDS011;4699;41.950;12.514;2022-07-29T11:51:14;9.40;;;3.80;;
9320;SDS011;4699;41.950;12.514;2022-07-29T11:53:41;8.43;;;3.10;;
9320;SDS011;4699;41.950;12.514;2022-07-29T11:56:14;7.05;;;3.42;;
9320;SDS011;4699;41.950;12.514;2022-07-29T11:58:41;4.97;;;2.85;;
9320;SDS011;4699;41.950;12.514;2022-07-29T12:01:08;9.30;;;3.35;;
9320;SDS011;4699;41.950;12.514;2022-07-29T12:03:39;6.72;;;3.17;;
9320;SDS011;4699;41.950;12.514;2022-07-29T12:06:12;12.88;;;3.50;;
9320;SDS011;4699;41.950;12.514;2022-07-29T12:08:40;10.30;;;3.75;;
9320;SDS011;4699;41.950;12.514;2022-07-29T12:11:14;5.57;;;3.38;;
9320;SDS011;4699;41.950;12.514;2022-07-29T12:13:41;6.72;;;3.45;;
9320;SDS011;4699;41.950;12.514;2022-07-29T12:16:09;7.35;;;2.65;;
9320;SDS011;4699;41.950;12.514;2022-07-29T12:18:36;10.35;;;3.45;;
9320;SDS011;4699;41.950;12.514;2022-07-29T12:21:03;9.75;;;3.05;;
9320;SDS011;4699;41.950;12.514;2022-07-29T12:23:32;7.00;;;2.90;;
9320;SDS011;4699;41.950;12.514;2022-07-29T12:25:59;8.57;;;3.50;;
9320;SDS011;4699;41.950;12.514;2022-07-29T12:28:26;6.40;;;3.05;;
9320;SDS011;4699;41.950;12.514;2022-07-29T12:30:54;7.55;;;3.03;;
9320;SDS011;4699;41.950;12.514;2022-07-29T12:33:22;6.65;;;3.17;;
9320;SDS011;4699;41.950;12.514;2022-07-29T12:35:50;6.55;;;2.80;;
9320;SDS011;4699;41.950;12.514;2022-07-29T12:38:18;5.15;;;2.80;;
9320;SDS011;4699;41.950;12.514;2022-07-29T12:40:47;4.93;;;3.03;;
9320;SDS011;4699;41.950;12.514;2022-07-29T12:43:16;4.72;;;2.60;;
9320;SDS011;4699;41.950;12.514;2022-07-29T12:45:44;6.28;;;2.90;;
9320;SDS011;4699;41.950;12.514;2022-07-29T12:48:15;6.10;;;3.35;;
9320;SDS011;4699;41.950;12.514;2022-07-29T12:50:52;3.80;;;2.65;;
9320;SDS011;4699;41.950;12.514;2022-07-29T12:53:20;6.82;;;2.70;;
9320;SDS011;4699;41.950;12.514;2022-07-29T12:55:49;7.78;;;3.03;;
9320;SDS011;4699;41.950;12.514;2022-07-29T12:58:30;4.63;;;2.60;;
9320;SDS011;4699;41.950;12.514;2022-07-29T13:00:59;4.72;;;2.85;;
9320;SDS011;4699;41.950;12.514;2022-07-29T13:03:27;5.03;;;2.33;;
9320;SDS011;4699;41.950;12.514;2022-07-29T13:05:56;7.15;;;3.15;;
9320;SDS011;4699;41.950;12.514;2022-07-29T13:08:24;6.30;;;2.67;;
9320;SDS011;4699;41.950;12.514;2022-07-29T13:10:55;6.95;;;2.80;;
9320;SDS011;4699;41.950;12.514;2022-07-29T13:13:25;8.98;;;3.67;;
9320;SDS011;4699;41.950;12.514;2022-07-29T13:16:05;4.10;;;2.65;;
9320;SDS011;4699;41.950;12.514;2022-07-29T13:18:33;5.80;;;2.58;;
9320;SDS011;4699;41.950;12.514;2022-07-29T13:21:10;7.90;;;2.72;;
9320;SDS011;4699;41.950;12.514;2022-07-29T13:23:38;15.63;;;3.03;;
9320;SDS011;4699;41.950;12.514;2022-07-29T13:26:07;5.45;;;3.00;;
9320;SDS011;4699;41.950;12.514;2022-07-29T13:28:35;4.47;;;2.80;;
9320;SDS011;4699;41.950;12.514;2022-07-29T13:31:02;5.57;;;2.70;;
9320;SDS011;4699;41.950;12.514;2022-07-29T13:33:29;5.22;;;2.50;;
9320;SDS011;4699;41.950;12.514;2022-07-29T13:35:56;10.65;;;2.88;;
9320;SDS011;4699;41.950;12.514;2022-07-29T13:38:25;4.88;;;2.75;;
9320;SDS011;4699;41.950;12.514;2022-07-29T13:40:52;5.38;;;2.53;;
9320;SDS011;4699;41.950;12.514;2022-07-29T13:43:21;5.22;;;2.70;;
9320;SDS011;4699;41.950;12.514;2022-07-29T13:45:48;5.47;;;2.67;;
9320;SDS011;4699;41.950;12.514;2022-07-29T13:48:15;13.45;;;3.45;;
9320;SDS011;4699;41.950;12.514;2022-07-29T13:50:43;5.57;;;2.67;;
9320;SDS011;4699;41.950;12.514;2022-07-29T13:53:12;10.98;;;2.80;;
9320;SDS011;4699;41.950;12.514;2022-07-29T13:55:39;7.68;;;2.58;;
9320;SDS011;4699;41.950;12.514;2022-07-29T13:58:07;4.80;;;2.83;;
9320;SDS011;4699;41.950;12.514;2022-07-29T14:00:35;7.78;;;2.92;;
9320;SDS011;4699;41.950;12.514;2022-07-29T14:03:02;6.05;;;2.65;;
9320;SDS011;4699;41.950;12.514;2022-07-29T14:05:31;4.35;;;2.95;;
9320;SDS011;4699;41.950;12.514;2022-07-29T14:07:58;6.30;;;2.80;;
9320;SDS011;4699;41.950;12.514;2022-07-29T14:10:25;7.00;;;2.47;;
9320;SDS011;4699;41.950;12.514;2022-07-29T14:12:53;7.20;;;2.70;;
9320;SDS011;4699;41.950;12.514;2022-07-29T14:15:20;3.85;;;2.22;;
9320;SDS011;4699;41.950;12.514;2022-07-29T14:17:49;8.43;;;3.00;;
9320;SDS011;4699;41.950;12.514;2022-07-29T14:20:17;8.85;;;2.75;;
9320;SDS011;4699;41.950;12.514;2022-07-29T14:22:44;4.85;;;2.33;;
9320;SDS011;4699;41.950;12.514;2022-07-29T14:25:12;5.43;;;2.42;;
9320;SDS011;4699;41.950;12.514;2022-07-29T14:27:39;6.85;;;2.50;;
9320;SDS011;4699;41.950;12.514;2022-07-29T14:30:07;7.13;;;2.67;;
9320;SDS011;4699;41.950;12.514;2022-07-29T14:32:34;7.95;;;2.55;;
9320;SDS011;4699;41.950;12.514;2022-07-29T14:35:03;7.32;;;2.55;;
9320;SDS011;4699;41.950;12.514;2022-07-29T14:37:30;5.18;;;3.05;;
9320;SDS011;4699;41.950;12.514;2022-07-29T14:39:58;4.68;;;2.40;;
9320;SDS011;4699;41.950;12.514;2022-07-29T14:42:28;3.55;;;2.35;;
9320;SDS011;4699;41.950;12.514;2022-07-29T14:44:56;3.92;;;2.50;;
9320;SDS011;4699;41.950;12.514;2022-07-29T14:47:23;7.03;;;2.47;;
9320;SDS011;4699;41.950;12.514;2022-07-29T14:49:50;4.38;;;2.17;;
9320;SDS011;4699;41.950;12.514;2022-07-29T14:52:19;3.95;;;2.35;;
9320;SDS011;4699;41.950;12.514;2022-07-29T14:54:46;6.60;;;2.67;;
9320;SDS011;4699;41.950;12.514;2022-07-29T14:57:13;5.78;;;2.28;;
9320;SDS011;4699;41.950;12.514;2022-07-29T14:59:41;3.63;;;2.22;;
9320;SDS011;4699;41.950;12.514;2022-07-29T15:02:08;7.95;;;2.65;;
9320;SDS011;4699;41.950;12.514;2022-07-29T15:04:35;5.28;;;2.30;;
9320;SDS011;4699;41.950;12.514;2022-07-29T15:07:03;4.90;;;2.28;;
9320;SDS011;4699;41.950;12.514;2022-07-29T15:09:31;6.03;;;2.45;;
9320;SDS011;4699;41.950;12.514;2022-07-29T15:11:58;3.63;;;2.15;;
9320;SDS011;4699;41.950;12.514;2022-07-29T15:14:27;5.80;;;1.92;;
9320;SDS011;4699;41.950;12.514;2022-07-29T15:16:54;4.93;;;2.28;;
9320;SDS011;4699;41.950;12.514;2022-07-29T15:19:22;5.53;;;2.30;;